Terminal Aerodrome Forecast
Issued by NWS Lake Charles, LA

Home | Current Version | Previous Version | Text Only | Print | Product List | Glossary On
Versions: 1 2 3 4 5 6 7 8 9 10 11 12 13 14 15 16 17
531
FTUS44 KLCH 230520
TAFARA
TAF
KARA 230520Z 2306/2406 VRB03KT P6SM SKC
      TEMPO 2309/2313 4SM BR
     FM231400 06005KT P6SM SKC
     FM231700 07006KT P6SM SCT040=

USA.gov is the U.S. government's official web portal to all federal, state and local government web resources and services.